createdAt,value
2022-11-21T00:01:22.436Z,23
2022-11-21T00:06:44.216Z,22.9
2022-11-21T00:12:20.869Z,22.9
2022-11-21T00:18:03.998Z,22.8
2022-11-21T00:23:10.033Z,22.7
2022-11-21T00:28:51.641Z,23.3
2022-11-21T00:34:28.601Z,23.4
2022-11-21T00:39:49.990Z,23.3
2022-11-21T00:45:27.635Z,23.1
2022-11-21T00:50:48.757Z,23
2022-11-21T00:55:54.487Z,22.9
2022-11-21T01:01:16.503Z,22.9
2022-11-21T01:06:38.084Z,22.8
2022-11-21T01:11:43.760Z,23.3
2022-11-21T01:17:06.748Z,23.6
2022-11-21T01:22:44.102Z,23.3
2022-11-21T01:28:21.049Z,23.2
2022-11-21T01:33:59.257Z,23.1
2022-11-21T01:39:21.558Z,23
2022-11-21T01:44:44.136Z,22.9
2022-11-21T01:50:29.336Z,22.8
2022-11-21T01:55:51.967Z,23.4
2022-11-21T02:00:58.805Z,23.6
2022-11-21T02:06:37.349Z,23.4
2022-11-21T02:11:44.134Z,23.2
2022-11-21T02:16:51.175Z,23.1
2022-11-21T02:22:13.792Z,23.1
2022-11-21T02:27:26.108Z,23
2022-11-21T02:32:31.861Z,22.8
2022-11-21T02:37:54.328Z,23
2022-11-21T02:43:17.392Z,23.6
2022-11-21T02:48:55.260Z,23.5
2022-11-21T02:54:33.226Z,23.3
2022-11-21T03:00:17.382Z,23.2
2022-11-21T03:05:39.359Z,23.1
2022-11-21T03:11:17.832Z,23.1
2022-11-21T03:16:55.674Z,22.9
2022-11-21T03:22:17.272Z,23
2022-11-21T03:27:55.111Z,23.6
2022-11-21T03:33:32.781Z,23.5
2022-11-21T03:39:10.709Z,23.3
2022-11-21T03:44:49.313Z,23.2
2022-11-21T03:50:11.351Z,23.1
2022-11-21T03:55:33.590Z,23.1
2022-11-21T04:01:11.703Z,22.9
2022-11-21T04:06:55.385Z,22.9
2022-11-21T04:12:33.209Z,23.6
2022-11-21T04:18:16.466Z,23.6
2022-11-21T04:23:54.414Z,23.3
2022-11-21T04:29:31.044Z,23.2
2022-11-21T04:34:54.611Z,23.1
2022-11-21T04:40:17.004Z,23.1
2022-11-21T04:45:38.423Z,23
2022-11-21T04:51:20.303Z,22.9
2022-11-21T04:56:47.078Z,23.6
2022-11-21T05:02:09.953Z,23.6
2022-11-21T05:07:33.139Z,23.4
2022-11-21T05:12:55.041Z,23.2
2022-11-21T05:18:32.574Z,23.1
2022-11-21T05:23:58.155Z,23
2022-11-21T05:29:22.706Z,23
2022-11-21T05:35:01.288Z,22.9
2022-11-21T05:40:44.216Z,23.4
2022-11-21T05:46:21.905Z,23.7
2022-11-21T05:51:28.202Z,23.4
2022-11-21T05:56:55.474Z,23.3
2022-11-21T06:02:38.512Z,23.1
2022-11-21T06:08:05.104Z,23
2022-11-21T06:13:32.184Z,22.9
2022-11-21T06:18:58.302Z,22.9
2022-11-21T06:24:22.404Z,23.3
2022-11-21T06:30:00.652Z,23.8
2022-11-21T06:35:43.485Z,23.6
2022-11-21T06:41:11.909Z,23.4
2022-11-21T06:46:51.589Z,23.2
2022-11-21T06:52:13.574Z,23.1
2022-11-21T06:57:53.667Z,23
2022-11-21T07:03:36.725Z,22.9
2022-11-21T07:09:50.134Z,23.1
2022-11-21T07:15:56.085Z,23.7
2022-11-21T07:21:37.667Z,23.6
2022-11-21T07:27:16.962Z,23.4
2022-11-21T07:32:54.410Z,23.2
2022-11-21T07:38:17.504Z,23.1
2022-11-21T07:44:01.177Z,23
2022-11-21T07:49:22.801Z,22.9
2022-11-21T07:55:01.195Z,23.1
2022-11-21T08:00:29.000Z,23.7
2022-11-21T08:06:08.284Z,23.7
2022-11-21T08:11:52.889Z,23.4
2022-11-21T08:17:30.405Z,23.3
2022-11-21T08:23:13.349Z,23.2
2022-11-21T08:28:55.632Z,23.1
2022-11-21T08:34:36.539Z,23
2022-11-21T08:40:14.429Z,22.9
2022-11-21T08:45:49.858Z,23.3
2022-11-21T08:51:32.456Z,23.9
2022-11-21T08:57:11.634Z,23.6
2022-11-21T09:02:49.779Z,23.4
2022-11-21T09:08:34.567Z,23.3
2022-11-21T09:13:59.032Z,23.1
2022-11-21T09:19:47.013Z,23
2022-11-21T09:25:25.360Z,22.9
2022-11-21T09:31:02.520Z,23.3
2022-11-21T09:36:42.693Z,23.8
2022-11-21T09:42:22.287Z,23.6
2022-11-21T09:48:00.241Z,23.4
2022-11-21T09:53:40.668Z,23.3
2022-11-21T09:59:18.905Z,23.1
2022-11-21T10:05:03.740Z,23
2022-11-21T10:10:43.184Z,22.9
2022-11-21T10:16:24.505Z,23.3
2022-11-21T10:22:04.190Z,23.8
2022-11-21T10:27:42.794Z,23.6
2022-11-21T10:33:21.571Z,23.4
2022-11-21T10:39:04.371Z,23.3
2022-11-21T10:44:42.976Z,23.2
2022-11-21T10:50:05.503Z,23.1
2022-11-21T10:55:48.005Z,23
2022-11-21T11:01:28.302Z,23.3
2022-11-21T11:07:34.429Z,23.8
2022-11-21T11:13:44.286Z,23.7
2022-11-21T11:19:16.390Z,23.4
2022-11-21T11:25:01.304Z,23.3
2022-11-21T11:30:25.035Z,23.1
2022-11-21T11:35:48.126Z,23.1
2022-11-21T11:41:12.668Z,23
2022-11-21T11:46:51.164Z,23.3
2022-11-21T11:52:59.559Z,23.8
2022-11-21T11:58:37.726Z,23.7
2022-11-21T12:04:26.342Z,23.4
2022-11-21T12:11:41.997Z,23.3
2022-11-21T12:17:27.549Z,23.1
2022-11-21T12:23:06.865Z,23
2022-11-21T12:28:47.076Z,23.1
2022-11-21T12:34:31.394Z,23.6
2022-11-21T12:40:22.230Z,23.9
2022-11-21T12:46:05.424Z,23.6
2022-11-21T12:51:34.078Z,23.4
2022-11-21T12:57:15.270Z,23.3
2022-11-21T13:02:45.274Z,23.1
2022-11-21T13:08:24.812Z,23.1
2022-11-21T13:14:03.762Z,23.4
2022-11-21T13:19:41.887Z,23.9
2022-11-21T13:25:21.116Z,23.8
2022-11-21T13:30:43.775Z,23.4
2022-11-21T13:36:24.782Z,23.2
2022-11-21T13:42:02.313Z,23
2022-11-21T13:48:26.432Z,22.9
2022-11-21T13:54:12.887Z,22.8
2022-11-21T13:59:51.122Z,22.8
2022-11-21T14:05:29.484Z,23
2022-11-21T14:11:09.804Z,23.5
2022-11-21T14:16:51.084Z,23.9
2022-11-21T14:22:33.566Z,23.6
2022-11-21T14:28:19.257Z,23.3
2022-11-21T14:34:01.311Z,23.1
2022-11-21T14:40:17.987Z,22.9
2022-11-21T14:45:57.063Z,22.8
2022-11-21T14:51:30.760Z,22.8
2022-11-21T14:57:41.598Z,22.7
2022-11-21T15:03:48.357Z,22.8
2022-11-21T15:11:25.131Z,23.6
2022-11-21T15:17:34.961Z,24.5
2022-11-21T15:23:48.731Z,25.2
2022-11-21T15:29:27.253Z,25.7
2022-11-21T15:35:48.273Z,26.2
2022-11-21T15:58:37.742Z,26.6
2022-11-21T16:09:47.949Z,28.1
2022-11-21T16:15:30.892Z,28.4
2022-11-21T16:21:15.575Z,28.6
2022-11-21T16:27:00.338Z,28.9
2022-11-21T16:32:23.107Z,29.2
2022-11-21T16:38:03.698Z,29.4
2022-11-21T16:43:49.970Z,29.6
2022-11-21T16:49:16.578Z,29.8
2022-11-21T16:54:59.702Z,29.9
2022-11-21T17:00:22.555Z,30.2
2022-11-21T17:06:02.134Z,30.4
2022-11-21T17:11:41.329Z,30.6
2022-11-21T17:17:03.234Z,30.7
2022-11-21T17:22:26.343Z,30.9
2022-11-21T17:28:05.410Z,31.1
2022-11-21T17:33:49.215Z,31.3
2022-11-21T17:39:30.716Z,31.4
2022-11-21T17:45:10.582Z,31.2
2022-11-21T17:50:40.663Z,31.1
2022-11-21T17:56:03.755Z,31
2022-11-21T18:01:50.665Z,30.9
2022-11-21T18:07:35.308Z,30.9
2022-11-21T18:13:35.603Z,31.1
2022-11-21T18:19:06.559Z,31.3
2022-11-21T18:24:46.998Z,31.6
2022-11-21T18:30:42.732Z,31.8
2022-11-21T18:35:50.481Z,32.1
2022-11-21T18:41:58.961Z,32.2
2022-11-21T18:47:54.427Z,32.3
2022-11-21T18:53:54.280Z,32.5
2022-11-21T18:59:18.649Z,32.6
2022-11-21T19:04:42.917Z,32.4
2022-11-21T19:10:01.638Z,32.6
2022-11-21T19:16:06.030Z,32.7
2022-11-21T19:22:20.183Z,32.8
2022-11-21T19:28:00.193Z,32.9
2022-11-21T19:33:43.134Z,32.9
2022-11-21T19:39:08.328Z,32.9
2022-11-21T19:44:32.971Z,33
2022-11-21T19:50:13.982Z,33.1
2022-11-21T19:55:49.458Z,33.2
2022-11-21T20:01:14.417Z,33.3
2022-11-21T20:06:42.636Z,33.3
2022-11-21T20:12:28.430Z,33.3
2022-11-21T20:17:53.107Z,33.3
2022-11-21T20:23:32.684Z,33.2
2022-11-21T20:29:19.275Z,33.3
2022-11-21T20:35:51.239Z,33.3
2022-11-21T20:41:29.450Z,33.4
2022-11-21T20:49:16.808Z,33.4
2022-11-21T20:57:51.853Z,33.4
2022-11-21T21:03:31.594Z,33.4
2022-11-21T21:08:54.919Z,33.4
2022-11-21T21:15:34.548Z,33.5
2022-11-21T21:21:31.683Z,33.6
2022-11-21T21:27:16.004Z,33.8
2022-11-21T21:32:59.757Z,33.8
2022-11-21T21:38:42.523Z,33.5
2022-11-21T21:44:20.503Z,33.3
2022-11-21T21:49:59.711Z,33.1
2022-11-21T21:55:38.284Z,33
2022-11-21T22:01:22.706Z,32.9
2022-11-21T22:06:34.340Z,32.8
2022-11-21T22:12:12.197Z,32.7
2022-11-21T22:17:49.684Z,32.6
2022-11-21T22:23:17.027Z,32.4
2022-11-21T22:29:09.183Z,32.3
2022-11-21T22:34:49.820Z,32.1
2022-11-21T22:40:12.536Z,31.9
2022-11-21T22:45:56.542Z,31.8
2022-11-21T22:51:19.529Z,31.5
2022-11-21T22:57:01.006Z,31.4
2022-11-21T23:02:39.040Z,31.2
2022-11-21T23:08:17.297Z,30.8
2022-11-21T23:13:40.494Z,30.6
2022-11-21T23:18:48.201Z,30.3
2022-11-21T23:24:10.157Z,30.1
2022-11-21T23:29:48.776Z,29.8
2022-11-21T23:35:10.818Z,29.6
2022-11-21T23:40:47.793Z,29.4
2022-11-21T23:46:26.180Z,28.9
2022-11-21T23:51:48.302Z,28.6
2022-11-21T23:57:11.052Z,28.2
